createdAt,value
2023-03-13T00:01:34.881Z,31.43
2023-03-13T00:05:35.004Z,31.44
2023-03-13T00:09:35.175Z,31.42
2023-03-13T00:13:35.231Z,31.45
2023-03-13T00:17:35.428Z,31.40
2023-03-13T00:21:35.515Z,31.44
2023-03-13T00:25:35.693Z,31.39
2023-03-13T00:29:35.816Z,31.40
2023-03-13T00:33:35.982Z,31.43
2023-03-13T00:37:36.165Z,31.43
2023-03-13T00:41:36.295Z,31.43
2023-03-13T00:45:36.466Z,31.40
2023-03-13T00:49:36.586Z,31.41
2023-03-13T00:53:36.724Z,31.40
2023-03-13T00:57:36.919Z,31.41
2023-03-13T01:01:37.085Z,31.38
2023-03-13T01:05:37.230Z,31.43
2023-03-13T01:09:37.448Z,31.43
2023-03-13T01:13:37.662Z,31.40
2023-03-13T01:17:37.984Z,31.41
2023-03-13T01:21:38.001Z,31.43
2023-03-13T01:25:38.183Z,31.43
2023-03-13T01:29:38.340Z,31.42
2023-03-13T01:33:38.541Z,31.39
2023-03-13T01:37:38.748Z,31.43
2023-03-13T01:41:38.909Z,31.40
2023-03-13T01:45:39.104Z,31.41
2023-03-13T01:49:39.267Z,31.39
2023-03-13T01:53:39.493Z,31.43
2023-03-13T01:57:39.698Z,31.41
2023-03-13T02:01:39.959Z,31.39
2023-03-13T02:05:40.090Z,31.41
2023-03-13T02:09:40.297Z,31.40
2023-03-13T02:13:40.426Z,31.41
2023-03-13T02:17:40.695Z,31.36
2023-03-13T02:21:40.884Z,31.41
2023-03-13T02:25:41.122Z,31.40
2023-03-13T02:29:41.308Z,31.41
2023-03-13T02:33:41.284Z,31.42
2023-03-13T02:37:41.226Z,31.41
2023-03-13T02:41:41.177Z,31.40
2023-03-13T02:45:41.160Z,31.40
2023-03-13T02:49:41.119Z,31.43
2023-03-13T02:53:41.122Z,31.42
2023-03-13T02:57:41.072Z,31.43
2023-03-13T03:01:41.073Z,31.41
2023-03-13T03:05:40.983Z,31.39
2023-03-13T03:09:40.938Z,31.40
2023-03-13T03:13:40.937Z,31.43
2023-03-13T03:17:40.860Z,31.41
2023-03-13T03:21:40.855Z,31.41
2023-03-13T03:25:40.809Z,31.38
2023-03-13T03:29:40.752Z,31.44
2023-03-13T03:33:40.705Z,31.42
2023-03-13T03:37:40.688Z,31.42
2023-03-13T03:41:40.671Z,31.41
2023-03-13T03:45:40.694Z,31.43
2023-03-13T03:49:40.730Z,31.45
2023-03-13T03:53:40.709Z,31.45
2023-03-13T03:57:40.701Z,31.45
2023-03-13T04:01:40.683Z,31.43
2023-03-13T04:05:40.561Z,31.43
2023-03-13T04:09:40.531Z,31.44
2023-03-13T04:13:40.520Z,31.42
2023-03-13T04:17:40.501Z,31.42
2023-03-13T04:21:40.449Z,31.46
2023-03-13T04:25:40.395Z,31.45
2023-03-13T04:29:40.567Z,31.45
2023-03-13T04:33:40.555Z,31.49
2023-03-13T04:37:40.536Z,31.43
2023-03-13T04:41:40.465Z,31.45
2023-03-13T04:45:40.452Z,31.46
2023-03-13T04:49:40.390Z,31.45
2023-03-13T04:53:40.385Z,31.44
2023-03-13T04:57:40.377Z,31.44
2023-03-13T05:01:40.313Z,31.45
2023-03-13T05:05:40.261Z,31.48
2023-03-13T05:09:40.398Z,31.45
2023-03-13T05:13:40.426Z,31.45
2023-03-13T05:17:40.300Z,31.41
2023-03-13T05:21:40.265Z,31.38
2023-03-13T05:25:40.229Z,31.41
2023-03-13T05:29:40.329Z,31.41
2023-03-13T05:33:40.149Z,31.39
2023-03-13T05:37:41.337Z,31.38
2023-03-13T05:41:40.089Z,31.39
2023-03-13T05:45:40.076Z,31.36
2023-03-13T05:49:40.047Z,31.38
2023-03-13T05:53:39.976Z,31.37
2023-03-13T05:57:39.954Z,31.36
2023-03-13T06:01:39.920Z,31.35
2023-03-13T06:05:39.973Z,31.34
2023-03-13T06:09:39.869Z,31.34
2023-03-13T06:13:39.793Z,31.35
2023-03-13T06:17:39.778Z,31.34
2023-03-13T06:21:39.747Z,31.33
2023-03-13T06:25:39.765Z,31.28
2023-03-13T06:29:39.727Z,31.25
2023-03-13T06:33:39.671Z,31.15
2023-03-13T06:37:40.018Z,30.48
2023-03-13T06:41:39.624Z,29.97
2023-03-13T06:45:39.614Z,31.14
2023-03-13T06:49:39.587Z,31.53
2023-03-13T06:53:39.506Z,31.44
2023-03-13T06:57:39.537Z,31.99
2023-03-13T07:01:39.472Z,32.21
2023-03-13T07:05:39.434Z,32.46
2023-03-13T07:09:39.579Z,32.35
2023-03-13T07:13:39.336Z,32.58
2023-03-13T07:17:39.377Z,32.79
2023-03-13T07:21:39.267Z,32.97
2023-03-13T07:25:39.292Z,33.23
2023-03-13T07:29:39.348Z,33.67
2023-03-13T07:33:39.318Z,33.87
2023-03-13T07:37:39.241Z,34.15
2023-03-13T07:41:40.105Z,33.54
2023-03-13T07:45:39.579Z,34.19
2023-03-13T07:49:39.151Z,34.10
2023-03-13T07:53:39.224Z,34.42
2023-03-13T07:57:39.597Z,34.30
2023-03-13T08:01:39.059Z,33.93
2023-03-13T08:05:39.198Z,34.25
2023-03-13T08:09:38.971Z,34.13
2023-03-13T08:13:38.921Z,34.02
2023-03-13T08:17:38.905Z,33.94
2023-03-13T08:21:38.882Z,34.11
2023-03-13T08:25:39.096Z,33.65
2023-03-13T08:29:38.768Z,33.46
2023-03-13T08:33:38.754Z,33.20
2023-03-13T08:37:38.741Z,33.12
2023-03-13T08:41:38.704Z,31.02
2023-03-13T08:45:38.884Z,32.19
2023-03-13T08:49:39.075Z,32.30
2023-03-13T08:53:39.151Z,32.51
2023-03-13T08:57:39.631Z,32.45
2023-03-13T09:01:39.316Z,32.63
2023-03-13T09:05:54.983Z,32.90
2023-03-13T09:09:40.351Z,32.97
2023-03-13T09:13:39.297Z,33.34
2023-03-13T09:17:39.629Z,33.37
2023-03-13T09:21:39.242Z,33.24
2023-03-13T09:25:39.633Z,33.75
2023-03-13T09:29:40.123Z,32.76
2023-03-13T09:33:39.124Z,31.56
2023-03-13T09:37:39.173Z,32.81
2023-03-13T09:41:39.128Z,32.12
2023-03-13T09:45:39.203Z,31.85
2023-03-13T09:49:39.649Z,32.78
2023-03-13T09:53:39.596Z,33.36
2023-03-13T09:57:39.495Z,34.04
2023-03-13T10:01:39.547Z,34.26
2023-03-13T10:05:40.094Z,34.22
2023-03-13T10:09:39.682Z,34.49
2023-03-13T10:13:39.643Z,34.47
2023-03-13T10:17:39.619Z,34.48
2023-03-13T10:21:39.643Z,33.89
2023-03-13T10:25:39.628Z,33.95
2023-03-13T10:29:39.613Z,33.32
2023-03-13T10:33:39.613Z,31.89
2023-03-13T10:37:39.657Z,32.23
2023-03-13T10:41:39.432Z,33.41
2023-03-13T10:45:39.340Z,33.83
2023-03-13T10:49:39.322Z,34.12
2023-03-13T10:53:39.285Z,34.28
2023-03-13T10:57:39.652Z,34.48
2023-03-13T11:01:39.202Z,34.66
2023-03-13T11:05:39.170Z,35.00
2023-03-13T11:09:39.154Z,35.07
2023-03-13T11:13:39.299Z,34.15
2023-03-13T11:17:39.515Z,34.03
2023-03-13T11:21:39.491Z,33.70
2023-03-13T11:25:39.496Z,32.34
2023-03-13T11:29:39.467Z,27.24
2023-03-13T11:33:39.386Z,28.92
2023-03-13T11:37:39.318Z,29.59
2023-03-13T11:41:39.328Z,29.74
2023-03-13T11:45:39.315Z,30.30
2023-03-13T11:49:40.815Z,30.64
2023-03-13T11:53:39.187Z,30.99
2023-03-13T11:57:39.185Z,31.67
2023-03-13T12:01:39.153Z,31.66
2023-03-13T12:05:39.072Z,32.15
2023-03-13T12:09:39.056Z,32.54
2023-03-13T12:13:39.055Z,32.82
2023-03-13T12:17:39.159Z,33.22
2023-03-13T12:21:39.102Z,34.10
2023-03-13T12:25:39.829Z,32.99
2023-03-13T12:29:39.037Z,32.44
2023-03-13T12:33:38.963Z,32.67
2023-03-13T12:37:38.928Z,32.50
2023-03-13T12:41:38.919Z,32.50
2023-03-13T12:45:38.963Z,32.46
2023-03-13T12:49:38.858Z,32.41
2023-03-13T12:53:38.842Z,32.39
2023-03-13T12:57:38.781Z,32.32
2023-03-13T13:01:38.728Z,32.29
2023-03-13T13:05:38.726Z,32.23
2023-03-13T13:09:38.681Z,32.19
2023-03-13T13:13:38.598Z,32.12
2023-03-13T13:17:38.548Z,32.08
2023-03-13T13:21:38.555Z,32.11
2023-03-13T13:25:38.585Z,32.02
2023-03-13T13:29:38.655Z,32.01
2023-03-13T13:33:38.737Z,31.90
2023-03-13T13:37:38.774Z,31.81
2023-03-13T13:41:38.900Z,31.67
2023-03-13T13:45:38.926Z,31.83
2023-03-13T13:49:38.955Z,31.75
2023-03-13T13:53:39.631Z,31.77
2023-03-13T13:57:39.047Z,31.71
2023-03-13T14:01:39.128Z,31.74
2023-03-13T14:05:39.111Z,31.67
2023-03-13T14:09:39.191Z,31.69
2023-03-13T14:13:39.197Z,31.53
2023-03-13T14:17:39.196Z,31.50
2023-03-13T14:21:39.224Z,31.53
2023-03-13T14:25:39.305Z,31.44
2023-03-13T14:29:39.280Z,31.30
2023-03-13T14:33:39.267Z,31.19
2023-03-13T14:37:39.240Z,30.97
2023-03-13T14:41:39.327Z,30.79
2023-03-13T14:45:39.523Z,30.60
2023-03-13T14:49:39.516Z,30.72
2023-03-13T14:53:39.438Z,30.81
2023-03-13T14:57:39.395Z,30.79
2023-03-13T15:01:39.446Z,30.67
2023-03-13T15:05:39.362Z,30.42
2023-03-13T15:09:39.708Z,30.18
2023-03-13T15:13:39.300Z,30.14
2023-03-13T15:17:39.249Z,30.05
2023-03-13T15:21:39.178Z,30.19
2023-03-13T15:25:39.198Z,30.10
2023-03-13T15:29:39.147Z,30.03
2023-03-13T15:33:39.092Z,30.09
2023-03-13T15:37:39.075Z,29.95
2023-03-13T15:41:39.056Z,29.63
2023-03-13T15:45:39.097Z,29.67
2023-03-13T15:49:39.110Z,29.92
2023-03-13T15:53:39.173Z,30.04
2023-03-13T15:57:39.311Z,30.00
2023-03-13T16:01:39.372Z,30.07
2023-03-13T16:05:39.472Z,30.14
2023-03-13T16:09:39.611Z,30.20
2023-03-13T16:13:39.833Z,30.20
2023-03-13T16:17:39.806Z,30.24
2023-03-13T16:21:39.981Z,30.24
2023-03-13T16:25:40.178Z,30.28
2023-03-13T16:29:40.498Z,30.27
2023-03-13T16:33:40.584Z,30.30
2023-03-13T16:37:40.819Z,30.41
2023-03-13T16:41:40.814Z,30.45
2023-03-13T16:45:40.838Z,30.47
2023-03-13T16:49:40.718Z,30.49
2023-03-13T16:53:40.661Z,30.53
2023-03-13T16:57:40.648Z,30.48
2023-03-13T17:01:40.623Z,30.48
2023-03-13T17:05:40.573Z,30.45
2023-03-13T17:09:40.626Z,30.59
2023-03-13T17:13:40.521Z,30.50
2023-03-13T17:17:40.492Z,30.55
2023-03-13T17:21:40.401Z,30.48
2023-03-13T17:25:40.384Z,30.55
2023-03-13T17:29:40.376Z,30.52
2023-03-13T17:33:40.411Z,30.44
2023-03-13T17:37:40.272Z,30.57
2023-03-13T17:41:40.275Z,30.57
2023-03-13T17:45:40.220Z,30.59
2023-03-13T17:49:40.184Z,30.53
2023-03-13T17:53:40.124Z,30.58
2023-03-13T17:57:40.150Z,30.57
2023-03-13T18:01:40.389Z,30.63
2023-03-13T18:05:41.879Z,30.58
2023-03-13T18:09:40.604Z,30.59
2023-03-13T18:13:40.790Z,30.54
2023-03-13T18:17:40.984Z,30.55
2023-03-13T18:21:41.193Z,30.53
2023-03-13T18:25:41.336Z,30.52
2023-03-13T18:29:41.571Z,30.52
2023-03-13T18:33:41.906Z,30.46
2023-03-13T18:37:41.506Z,30.52
2023-03-13T18:41:41.483Z,30.53
2023-03-13T18:45:41.453Z,30.51
2023-03-13T18:49:41.427Z,30.55
2023-03-13T18:53:41.337Z,30.54
2023-03-13T18:57:41.344Z,30.55
2023-03-13T19:01:41.363Z,30.58
2023-03-13T19:05:41.487Z,30.62
2023-03-13T19:09:43.872Z,30.67
2023-03-13T19:13:41.657Z,30.64
2023-03-13T19:17:41.597Z,30.64
2023-03-13T19:21:41.557Z,30.63
2023-03-13T19:25:41.548Z,30.65
2023-03-13T19:29:41.540Z,30.67
2023-03-13T19:33:41.460Z,30.67
2023-03-13T19:37:41.456Z,30.70
2023-03-13T19:41:41.384Z,30.67
2023-03-13T19:45:41.398Z,30.67
2023-03-13T19:49:41.317Z,30.66
2023-03-13T19:53:41.323Z,30.66
2023-03-13T19:57:41.261Z,30.65
2023-03-13T20:01:41.272Z,30.62
2023-03-13T20:05:41.152Z,30.39
2023-03-13T20:09:41.120Z,29.70
2023-03-13T20:13:41.113Z,30.30
2023-03-13T20:17:41.082Z,30.40
2023-03-13T20:21:41.051Z,30.47
2023-03-13T20:25:41.009Z,30.52
2023-03-13T20:29:41.022Z,30.52
2023-03-13T20:33:40.956Z,30.47
2023-03-13T20:37:40.905Z,30.47
2023-03-13T20:41:40.898Z,30.48
2023-03-13T20:45:40.825Z,30.48
2023-03-13T20:49:40.869Z,30.45
2023-03-13T20:53:40.777Z,30.48
2023-03-13T20:57:40.745Z,30.48
2023-03-13T21:01:40.753Z,30.53
2023-03-13T21:05:40.682Z,30.53
2023-03-13T21:09:40.691Z,30.53
2023-03-13T21:13:40.770Z,30.56
2023-03-13T21:17:40.823Z,30.56
2023-03-13T21:21:40.964Z,30.59
2023-03-13T21:25:40.986Z,30.59
2023-03-13T21:29:41.079Z,30.58
2023-03-13T21:33:41.188Z,30.60
2023-03-13T21:37:41.328Z,30.63
2023-03-13T21:41:41.349Z,30.67
2023-03-13T21:45:41.428Z,30.69
2023-03-13T21:49:41.586Z,30.73
2023-03-13T21:53:41.640Z,30.79
2023-03-13T21:57:41.678Z,30.80
2023-03-13T22:01:41.772Z,30.78
2023-03-13T22:05:41.933Z,30.85
2023-03-13T22:09:41.946Z,30.86
2023-03-13T22:13:42.030Z,30.81
2023-03-13T22:17:42.089Z,30.83
2023-03-13T22:21:42.181Z,30.79
2023-03-13T22:25:42.318Z,30.79
2023-03-13T22:29:42.397Z,30.77
2023-03-13T22:33:42.505Z,30.77
2023-03-13T22:37:42.567Z,30.78
2023-03-13T22:41:42.700Z,30.78
2023-03-13T22:45:42.853Z,30.80
2023-03-13T22:49:42.881Z,30.82
2023-03-13T22:53:43.143Z,30.85
2023-03-13T22:57:43.051Z,30.92
2023-03-13T23:01:43.163Z,30.91
2023-03-13T23:05:43.296Z,30.91
2023-03-13T23:09:43.332Z,30.95
2023-03-13T23:13:43.502Z,30.96
2023-03-13T23:17:43.548Z,31.00
2023-03-13T23:21:43.661Z,31.01
2023-03-13T23:25:43.795Z,31.04
2023-03-13T23:29:43.946Z,31.05
2023-03-13T23:33:44.055Z,31.06
2023-03-13T23:37:44.179Z,31.07
2023-03-13T23:41:44.310Z,31.08
2023-03-13T23:45:44.431Z,31.11
2023-03-13T23:49:44.579Z,31.15
2023-03-13T23:53:44.713Z,31.14
2023-03-13T23:57:44.850Z,31.14
